createdAt,value
2022-08-05T00:01:00.910Z,26.38
2022-08-05T00:02:38.880Z,26.37
2022-08-05T00:03:54.908Z,26.38
2022-08-05T00:05:05.753Z,26.38
2022-08-05T00:07:21.917Z,26.37
2022-08-05T00:09:12.632Z,26.38
2022-08-05T00:10:22.572Z,26.36
2022-08-05T00:11:34.931Z,26.35
2022-08-05T00:13:02.396Z,26.33
2022-08-05T00:14:20.853Z,26.33
2022-08-05T00:15:54.839Z,26.35
2022-08-05T00:17:03.531Z,26.36
2022-08-05T00:18:23.025Z,26.35
2022-08-05T00:19:33.071Z,26.35
2022-08-05T00:21:06.435Z,26.35
2022-08-05T00:22:11.899Z,26.35
2022-08-05T00:23:30.942Z,26.34
2022-08-05T00:25:13.349Z,26.24
2022-08-05T00:26:21.973Z,26.24
2022-08-05T00:27:28.600Z,26.27
2022-08-05T00:28:46.478Z,26.29
2022-08-05T00:29:53.607Z,26.29
2022-08-05T00:31:07.481Z,26.29
2022-08-05T00:32:14.874Z,26.31
2022-08-05T00:34:43.132Z,26.3
2022-08-05T00:36:15.269Z,26.33
2022-08-05T00:38:18.588Z,26.32
2022-08-05T00:39:41.463Z,26.31
2022-08-05T00:41:01.962Z,26.3
2022-08-05T00:42:31.444Z,26.3
2022-08-05T00:43:46.784Z,26.29
2022-08-05T00:44:53.873Z,26.29
2022-08-05T00:45:58.522Z,26.31
2022-08-05T00:47:05.680Z,26.31
2022-08-05T00:48:18.788Z,26.32
2022-08-05T00:49:52.559Z,26.32
2022-08-05T00:50:57.005Z,26.32
2022-08-05T00:52:01.365Z,26.33
2022-08-05T00:53:09.683Z,26.31
2022-08-05T00:55:06.700Z,26.29
2022-08-05T00:56:11.081Z,26.3
2022-08-05T00:57:31.692Z,26.3
2022-08-05T00:59:02.133Z,26.29
2022-08-05T01:00:11.917Z,26.3
2022-08-05T01:01:24.849Z,26.3
2022-08-05T01:02:52.812Z,26.3
2022-08-05T01:03:57.382Z,26.3
2022-08-05T01:05:14.173Z,26.29
2022-08-05T01:06:19.094Z,26.31
2022-08-05T01:07:36.003Z,26.3
2022-08-05T01:09:46.564Z,26.3
2022-08-05T01:11:00.133Z,26.31
2022-08-05T01:12:04.873Z,26.3
2022-08-05T01:13:27.295Z,26.29
2022-08-05T01:15:03.819Z,26.3
2022-08-05T01:16:37.444Z,26.28
2022-08-05T01:17:44.815Z,26.27
2022-08-05T01:18:58.578Z,26.28
2022-08-05T01:20:05.140Z,26.28
2022-08-05T01:21:09.482Z,26.27
2022-08-05T01:22:40.396Z,26.25
2022-08-05T01:23:52.934Z,26.26
2022-08-05T01:25:04.570Z,26.24
2022-08-05T01:26:09.754Z,26.22
2022-08-05T01:27:17.995Z,26.22
2022-08-05T01:28:25.650Z,26.25
2022-08-05T01:29:30.671Z,26.23
2022-08-05T01:30:38.291Z,26.24
2022-08-05T01:31:54.793Z,26.23
2022-08-05T01:33:01.577Z,26.22
2022-08-05T01:34:08.513Z,26.22
2022-08-05T01:35:50.493Z,26.22
2022-08-05T01:37:02.061Z,26.22
2022-08-05T01:38:06.900Z,26.21
2022-08-05T01:39:34.572Z,26.18
2022-08-05T01:40:52.315Z,26.19
2022-08-05T01:41:56.972Z,26.19
2022-08-05T01:43:03.656Z,26.19
2022-08-05T01:44:24.730Z,26.17
2022-08-05T01:45:42.938Z,26.18
2022-08-05T01:47:02.476Z,26.19
2022-08-05T01:48:15.193Z,26.2
2022-08-05T01:49:22.777Z,26.21
2022-08-05T01:51:12.231Z,26.2
2022-08-05T01:52:18.194Z,26.19
2022-08-05T01:53:55.323Z,26.2
2022-08-05T01:55:06.201Z,26.18
2022-08-05T01:56:12.885Z,26.19
2022-08-05T01:59:32.552Z,26.19
2022-08-05T02:00:39.093Z,26.18
2022-08-05T02:01:47.161Z,26.17
2022-08-05T02:02:53.630Z,26.18
2022-08-05T02:04:00.008Z,26.17
2022-08-05T02:05:04.613Z,26.16
2022-08-05T02:06:24.265Z,26.18
2022-08-05T02:07:57.863Z,26.16
2022-08-05T02:09:05.713Z,26.17
2022-08-05T02:10:10.231Z,26.16
2022-08-05T02:11:33.012Z,26.16
2022-08-05T02:12:44.517Z,26.18
2022-08-05T02:13:55.284Z,26.17
2022-08-05T02:14:59.654Z,26.14
2022-08-05T02:16:07.431Z,26.13
2022-08-05T02:17:30.004Z,26.13
2022-08-05T02:19:40.565Z,26.13
2022-08-05T02:20:51.736Z,26.1
2022-08-05T02:22:01.218Z,26.12
2022-08-05T02:23:05.576Z,26.1
2022-08-05T02:24:17.919Z,26.1
2022-08-05T02:25:27.015Z,26.1
2022-08-05T02:26:54.755Z,26.12
2022-08-05T02:28:00.439Z,26.12
2022-08-05T02:29:17.308Z,26.1
2022-08-05T02:31:03.304Z,26.11
2022-08-05T02:32:19.969Z,26.11
2022-08-05T02:33:36.301Z,26.11
2022-08-05T02:34:42.783Z,26.1
2022-08-05T02:36:00.617Z,26.1
2022-08-05T02:37:06.246Z,26.1
2022-08-05T02:38:11.963Z,26.1
2022-08-05T02:39:37.629Z,26.08
2022-08-05T02:40:54.553Z,26.09
2022-08-05T02:42:01.549Z,26.1
2022-08-05T02:43:07.252Z,26.09
2022-08-05T02:44:13.695Z,26.09
2022-08-05T02:45:19.784Z,26.08
2022-08-05T02:46:30.769Z,26.05
2022-08-05T02:47:58.814Z,26.05
2022-08-05T02:49:18.742Z,26.05
2022-08-05T02:50:28.325Z,26.06
2022-08-05T02:52:01.278Z,26.08
2022-08-05T02:53:11.641Z,26.07
2022-08-05T02:54:34.696Z,26.07
2022-08-05T02:55:55.036Z,26.06
2022-08-05T02:57:09.749Z,26.07
2022-08-05T02:59:16.286Z,26.06
2022-08-05T03:00:30.243Z,26.07
2022-08-05T03:01:36.608Z,26.06
2022-08-05T03:02:48.015Z,26.02
2022-08-05T03:04:02.350Z,26.04
2022-08-05T03:05:21.734Z,26.03
2022-08-05T03:08:07.230Z,26.02
2022-08-05T03:09:15.887Z,26.01
2022-08-05T03:11:01.397Z,26.01
2022-08-05T03:14:05.627Z,26
2022-08-05T03:15:17.245Z,25.99
2022-08-05T03:16:21.828Z,25.98
2022-08-05T03:17:30.457Z,25.99
2022-08-05T03:18:43.830Z,25.98
2022-08-05T03:19:52.133Z,26
2022-08-05T03:21:00.842Z,25.99
2022-08-05T03:22:16.206Z,26
2022-08-05T03:23:36.874Z,25.99
2022-08-05T03:24:50.860Z,25.98
2022-08-05T03:26:04.197Z,26.01
2022-08-05T03:27:39.501Z,26
2022-08-05T03:29:04.165Z,25.99
2022-08-05T03:30:19.791Z,25.98
2022-08-05T03:31:56.310Z,25.98
2022-08-05T03:33:04.041Z,25.97
2022-08-05T03:34:10.820Z,25.97
2022-08-05T03:35:15.191Z,25.98
2022-08-05T03:36:29.840Z,25.98
2022-08-05T03:37:41.038Z,26.01
2022-08-05T03:38:55.844Z,26.02
2022-08-05T03:40:03.873Z,26.01
2022-08-05T03:41:17.724Z,26
2022-08-05T03:42:41.710Z,26
2022-08-05T03:43:59.684Z,26.01
2022-08-05T03:45:23.797Z,25.98
2022-08-05T03:46:29.614Z,26
2022-08-05T03:47:41.228Z,25.99
2022-08-05T03:48:46.722Z,25.98
2022-08-05T03:49:56.192Z,25.98
2022-08-05T03:52:35.845Z,25.99
2022-08-05T03:57:42.101Z,26.04
2022-08-05T03:58:48.565Z,26.04
2022-08-05T03:59:55.805Z,26.01
2022-08-05T04:01:00.314Z,26.01
2022-08-05T04:02:09.242Z,26.03
2022-08-05T04:03:40.049Z,26.05
2022-08-05T04:05:13.903Z,26.03
2022-08-05T04:06:19.106Z,26
2022-08-05T04:07:28.976Z,26
2022-08-05T04:09:01.403Z,25.98
2022-08-05T04:10:08.582Z,26
2022-08-05T04:11:22.406Z,25.99
2022-08-05T04:12:53.271Z,25.99
2022-08-05T04:14:02.260Z,25.99
2022-08-05T04:15:07.343Z,25.98
2022-08-05T04:16:24.482Z,25.97
2022-08-05T04:17:36.385Z,25.98
2022-08-05T04:19:03.416Z,26
2022-08-05T04:20:16.155Z,25.97
2022-08-05T04:22:05.914Z,25.97
2022-08-05T04:23:57.510Z,25.98
2022-08-05T04:25:24.145Z,25.96
2022-08-05T04:27:06.718Z,25.99
2022-08-05T04:28:12.854Z,26
2022-08-05T04:29:19.919Z,26
2022-08-05T04:30:26.398Z,26.01
2022-08-05T04:31:37.601Z,26.02
2022-08-05T04:32:45.340Z,26.01
2022-08-05T04:33:55.154Z,26.01
2022-08-05T04:36:10.755Z,25.99
2022-08-05T04:38:00.601Z,26.02
2022-08-05T04:39:10.240Z,26
2022-08-05T04:40:17.084Z,26.03
2022-08-05T04:41:28.038Z,26.04
2022-08-05T04:42:43.440Z,26.05
2022-08-05T04:43:52.090Z,26.07
2022-08-05T04:44:58.278Z,26.07
2022-08-05T04:46:06.175Z,26.07
2022-08-05T04:47:13.641Z,26.06
2022-08-05T04:48:27.148Z,26.08
2022-08-05T04:49:38.284Z,26.09
2022-08-05T04:51:14.934Z,26.13
2022-08-05T04:52:19.439Z,26.13
2022-08-05T04:53:23.896Z,26.14
2022-08-05T04:54:28.291Z,26.15
2022-08-05T04:56:05.063Z,26.17
2022-08-05T04:57:40.630Z,26.18
2022-08-05T04:58:57.439Z,26.2
2022-08-05T05:00:24.108Z,26.22
2022-08-05T05:01:33.893Z,26.23
2022-08-05T05:03:45.624Z,26.24
2022-08-05T05:04:50.584Z,26.24
2022-08-05T05:06:36.227Z,26.26
2022-08-05T05:07:56.339Z,26.27
2022-08-05T05:09:06.244Z,26.29
2022-08-05T05:10:12.204Z,26.28
2022-08-05T05:11:17.895Z,26.28
2022-08-05T05:12:59.089Z,26.23
2022-08-05T05:14:08.667Z,26.27
2022-08-05T05:15:56.278Z,26.29
2022-08-05T05:17:10.784Z,26.31
2022-08-05T05:18:15.212Z,26.31
2022-08-05T05:19:44.481Z,26.32
2022-08-05T05:20:52.532Z,26.33
2022-08-05T05:21:57.785Z,26.34
2022-08-05T05:23:38.902Z,26.35
2022-08-05T05:25:16.198Z,26.37
2022-08-05T05:26:28.268Z,26.37
2022-08-05T05:27:45.999Z,26.37
2022-08-05T05:28:59.458Z,26.38
2022-08-05T05:30:05.324Z,26.39
2022-08-05T05:32:33.335Z,26.38
2022-08-05T05:33:41.185Z,26.39
2022-08-05T05:35:06.266Z,26.4
2022-08-05T05:36:12.011Z,26.42
2022-08-05T05:37:19.551Z,26.44
2022-08-05T05:39:03.686Z,26.44
2022-08-05T05:40:14.075Z,26.44
2022-08-05T05:41:22.140Z,26.44
2022-08-05T05:42:42.522Z,26.43
2022-08-05T05:43:54.686Z,26.13
2022-08-05T05:45:04.140Z,26.27
2022-08-05T05:46:16.194Z,26.33
2022-08-05T05:47:30.152Z,26.37
2022-08-05T05:49:22.369Z,26.4
2022-08-05T05:50:27.189Z,26.39
2022-08-05T05:51:42.826Z,26.43
2022-08-05T05:52:57.269Z,26.45
2022-08-05T05:54:35.050Z,26.46
2022-08-05T05:56:00.558Z,26.48
2022-08-05T05:57:13.630Z,26.41
2022-08-05T05:58:23.005Z,26.42
2022-08-05T05:59:40.217Z,26.44
2022-08-05T06:00:46.637Z,26.45
2022-08-05T06:01:53.876Z,26.47
2022-08-05T06:03:02.330Z,26.48
2022-08-05T06:05:10.336Z,26.48
2022-08-05T06:06:22.845Z,26.49
2022-08-05T06:07:41.469Z,26.41
2022-08-05T06:09:07.556Z,26.46
2022-08-05T06:10:20.006Z,26.48
2022-08-05T06:11:39.755Z,26.5
2022-08-05T06:13:01.324Z,26.51
2022-08-05T06:14:06.549Z,26.49
2022-08-05T06:15:16.608Z,26.48
2022-08-05T06:17:52.513Z,26.38
2022-08-05T06:19:00.131Z,26.38
2022-08-05T06:20:18.801Z,26.42
2022-08-05T06:21:35.823Z,26.45
2022-08-05T06:22:51.940Z,26.45
2022-08-05T06:23:56.427Z,26.45
2022-08-05T06:25:24.771Z,26.44
2022-08-05T06:28:09.943Z,26.43
2022-08-05T06:29:45.534Z,26.39
2022-08-05T06:31:22.622Z,26.38
2022-08-05T06:32:36.921Z,26.36
2022-08-05T06:34:06.535Z,26.38
2022-08-05T06:35:15.368Z,26.39
2022-08-05T06:37:13.585Z,26.38
2022-08-05T06:39:03.411Z,26.41
2022-08-05T06:40:09.498Z,26.42
2022-08-05T06:41:16.060Z,26.42
2022-08-05T06:42:20.410Z,26.42
2022-08-05T06:43:51.390Z,26.43
2022-08-05T06:45:05.375Z,26.31
2022-08-05T06:47:05.548Z,26.27
2022-08-05T06:50:00.975Z,26.31
2022-08-05T06:51:09.711Z,26.36
2022-08-05T06:52:36.543Z,26.34
2022-08-05T06:54:01.805Z,26.33
2022-08-05T06:55:06.553Z,26.34
2022-08-05T06:56:25.700Z,26.29
2022-08-05T06:57:57.089Z,26.27
2022-08-05T06:59:42.288Z,26.34
2022-08-05T07:01:01.388Z,26.4
2022-08-05T07:02:05.998Z,26.4
2022-08-05T07:03:10.783Z,26.41
2022-08-05T07:04:19.169Z,26.44
2022-08-05T07:05:27.796Z,26.43
2022-08-05T07:06:44.701Z,26.45
2022-08-05T07:07:53.599Z,26.46
2022-08-05T07:08:59.135Z,26.48
2022-08-05T07:10:07.426Z,26.47
2022-08-05T07:11:15.179Z,26.45
2022-08-05T07:12:27.997Z,26.44
2022-08-05T07:13:34.145Z,26.44
2022-08-05T07:15:03.536Z,26.44
2022-08-05T07:16:12.185Z,26.44
2022-08-05T07:19:36.450Z,26.49
2022-08-05T07:21:59.658Z,26.56
2022-08-05T07:23:07.219Z,26.53
2022-08-05T07:24:31.619Z,26.55
2022-08-05T07:25:56.819Z,26.58
2022-08-05T07:27:02.921Z,26.62
2022-08-05T07:28:17.296Z,26.61
2022-08-05T07:29:25.509Z,26.61
2022-08-05T07:31:40.566Z,26.66
2022-08-05T07:32:59.134Z,26.65
2022-08-05T07:34:03.567Z,26.66
2022-08-05T07:35:56.141Z,26.68
2022-08-05T07:37:29.025Z,26.68
2022-08-05T07:38:49.582Z,26.71
2022-08-05T07:40:04.883Z,26.72
2022-08-05T07:42:10.036Z,26.73
2022-08-05T07:43:33.827Z,26.76
2022-08-05T07:44:40.476Z,26.77
2022-08-05T07:45:57.933Z,26.76
2022-08-05T07:47:06.230Z,26.76
2022-08-05T07:48:17.172Z,26.79
2022-08-05T07:50:10.396Z,26.85
2022-08-05T07:51:23.238Z,26.83
2022-08-05T07:52:57.649Z,26.81
2022-08-05T07:54:02.917Z,26.83
2022-08-05T07:55:15.744Z,26.85
2022-08-05T07:58:17.745Z,26.83
2022-08-05T08:00:02.723Z,26.87
2022-08-05T08:01:13.702Z,26.85
2022-08-05T08:02:26.445Z,26.87
2022-08-05T08:04:24.408Z,26.89
2022-08-05T08:05:44.681Z,26.89
2022-08-05T08:06:53.713Z,26.9
2022-08-05T08:08:00.840Z,26.9
2022-08-05T08:09:05.222Z,26.91
2022-08-05T08:10:09.937Z,26.94
2022-08-05T08:11:15.952Z,26.95
2022-08-05T08:12:50.215Z,26.96
2022-08-05T08:14:00.587Z,26.97
2022-08-05T08:15:09.560Z,27
2022-08-05T08:16:50.647Z,27
2022-08-05T08:17:58.855Z,26.95
2022-08-05T08:19:18.704Z,27
2022-08-05T08:22:05.945Z,27.05
2022-08-05T08:24:00.602Z,27.07
2022-08-05T08:25:15.978Z,27.15
2022-08-05T08:27:02.698Z,27.17
2022-08-05T08:28:18.609Z,27.15
2022-08-05T08:30:37.959Z,27.15
2022-08-05T08:31:53.324Z,27.14
2022-08-05T08:32:57.780Z,27.14
2022-08-05T08:34:10.765Z,27.12
2022-08-05T08:35:17.077Z,27.12
2022-08-05T08:36:49.199Z,27.16
2022-08-05T08:38:07.901Z,27.18
2022-08-05T08:39:38.301Z,27.23
2022-08-05T08:40:53.917Z,27.24
2022-08-05T08:42:02.173Z,27.24
2022-08-05T08:45:22.027Z,27.27
2022-08-05T08:46:33.670Z,27.28
2022-08-05T08:47:48.047Z,27.28
2022-08-05T08:51:22.650Z,27.33
2022-08-05T08:53:28.945Z,27.37
2022-08-05T08:54:37.045Z,27.48
2022-08-05T08:56:02.393Z,27.5
2022-08-05T08:57:11.149Z,27.46
2022-08-05T08:58:20.087Z,27.46
2022-08-05T08:59:51.891Z,27.41
2022-08-05T09:01:00.982Z,27.4
2022-08-05T09:02:08.525Z,27.42
2022-08-05T09:03:15.890Z,27.44
2022-08-05T09:04:24.247Z,27.42
2022-08-05T09:05:38.186Z,27.42
2022-08-05T09:07:28.683Z,27.62
2022-08-05T09:09:01.754Z,27.76
2022-08-05T09:10:06.302Z,27.81
2022-08-05T09:11:12.274Z,27.79
2022-08-05T09:12:20.308Z,27.8
2022-08-05T09:13:41.483Z,27.76
2022-08-05T09:16:08.610Z,27.71
2022-08-05T09:17:41.502Z,27.65
2022-08-05T09:18:55.628Z,27.63
2022-08-05T09:20:04.960Z,27.64
2022-08-05T09:21:21.117Z,27.73
2022-08-05T09:23:37.394Z,27.71
2022-08-05T09:24:47.773Z,27.68
2022-08-05T09:26:00.683Z,27.69
2022-08-05T09:27:11.576Z,27.69
2022-08-05T09:29:09.086Z,27.67
2022-08-05T09:30:23.206Z,27.68
2022-08-05T09:32:39.473Z,27.74
2022-08-05T09:33:51.113Z,27.74
2022-08-05T09:34:56.936Z,27.75
2022-08-05T09:36:11.953Z,27.72
2022-08-05T09:38:11.758Z,27.69
2022-08-05T09:39:39.350Z,27.72
2022-08-05T09:40:59.361Z,27.69
2022-08-05T09:42:06.358Z,27.7
2022-08-05T09:43:40.334Z,27.7
2022-08-05T09:44:51.715Z,27.72
2022-08-05T09:47:10.338Z,27.77
2022-08-05T09:48:18.014Z,27.81
2022-08-05T09:49:40.585Z,27.86
2022-08-05T09:51:14.748Z,27.91
2022-08-05T09:52:19.488Z,28.04
2022-08-05T09:53:54.137Z,28
2022-08-05T09:55:06.230Z,27.97
2022-08-05T09:57:20.708Z,27.91
2022-08-05T09:58:29.096Z,27.9
2022-08-05T09:59:34.742Z,27.78
2022-08-05T10:00:40.620Z,27.69
2022-08-05T10:01:45.480Z,27.59
2022-08-05T10:02:50.237Z,27.51
2022-08-05T10:03:57.033Z,27.45
2022-08-05T10:05:05.865Z,27.39
2022-08-05T10:06:16.135Z,27.36
2022-08-05T10:08:11.517Z,27.32
2022-08-05T10:10:00.298Z,27.27
2022-08-05T10:11:35.238Z,27.25
2022-08-05T10:12:40.122Z,27.24
2022-08-05T10:13:55.277Z,27.22
2022-08-05T10:15:00.526Z,27.21
2022-08-05T10:16:06.844Z,27.2
2022-08-05T10:17:14.078Z,27.19
2022-08-05T10:18:58.863Z,27.18
2022-08-05T10:20:11.985Z,27.17
2022-08-05T10:21:23.005Z,27.18
2022-08-05T10:22:29.396Z,27.17
2022-08-05T10:23:56.323Z,27.17
2022-08-05T10:25:14.316Z,27.16
2022-08-05T10:26:19.160Z,27.16
2022-08-05T10:27:38.821Z,27.15
2022-08-05T10:30:07.438Z,27.14
2022-08-05T10:34:07.066Z,27.11
2022-08-05T10:35:12.467Z,27.12
2022-08-05T10:36:16.830Z,27.1
2022-08-05T10:37:37.390Z,27.09
2022-08-05T10:38:51.426Z,27.1
2022-08-05T10:39:58.851Z,27.08
2022-08-05T10:41:24.738Z,27.08
2022-08-05T10:42:49.440Z,27.08
2022-08-05T10:43:54.972Z,27.07
2022-08-05T10:45:09.692Z,27.07
2022-08-05T10:46:45.409Z,27.07
2022-08-05T10:48:30.459Z,27.06
2022-08-05T10:50:21.095Z,27.07
2022-08-05T10:51:53.207Z,27.07
2022-08-05T10:53:07.580Z,27.06
2022-08-05T10:54:23.292Z,27.06
2022-08-05T10:56:03.872Z,27.06
2022-08-05T10:57:29.615Z,27.05
2022-08-05T10:58:47.944Z,27.07
2022-08-05T11:00:01.714Z,27.07
2022-08-05T11:01:28.152Z,27.06
2022-08-05T11:03:22.943Z,27.05
2022-08-05T11:04:31.678Z,27.06
2022-08-05T11:05:41.271Z,27.05
2022-08-05T11:06:56.120Z,27.07
2022-08-05T11:08:01.689Z,27.05
2022-08-05T11:09:45.697Z,27.05
2022-08-05T11:11:00.361Z,27.07
2022-08-05T11:12:19.203Z,27.05
2022-08-05T11:13:25.510Z,27.04
2022-08-05T11:14:57.315Z,27.04
2022-08-05T11:16:33.660Z,27.05
2022-08-05T11:18:59.077Z,27.04
2022-08-05T11:21:24.719Z,27.05
2022-08-05T11:22:29.615Z,27.05
2022-08-05T11:24:03.461Z,27.06
2022-08-05T11:26:03.727Z,27.05
2022-08-05T11:27:13.398Z,27.05
2022-08-05T11:28:17.758Z,27.04
2022-08-05T11:29:25.479Z,27.04
2022-08-05T11:30:32.130Z,27.05
2022-08-05T11:31:54.951Z,27.03
2022-08-05T11:33:05.890Z,27.04
2022-08-05T11:34:26.194Z,27.03
2022-08-05T11:35:35.904Z,27.03
2022-08-05T11:38:27.266Z,27.01
2022-08-05T11:39:55.749Z,27.02
2022-08-05T11:41:14.408Z,27.02
2022-08-05T11:43:09.902Z,27.02
2022-08-05T11:44:21.484Z,27.01
2022-08-05T11:46:15.749Z,27.01
2022-08-05T11:47:48.389Z,27.01
2022-08-05T11:48:57.909Z,27.01
2022-08-05T11:50:03.917Z,27.02
2022-08-05T11:51:10.877Z,27.01
2022-08-05T11:52:57.358Z,27.01
2022-08-05T11:54:08.672Z,27.01
2022-08-05T11:55:23.596Z,27.01
2022-08-05T11:56:40.835Z,27.02
2022-08-05T11:58:08.894Z,27.02
2022-08-05T11:59:21.141Z,27
2022-08-05T12:00:25.897Z,27
2022-08-05T12:01:33.889Z,27.01
2022-08-05T12:02:42.151Z,27.01
2022-08-05T12:03:55.464Z,27.02
2022-08-05T12:05:00.525Z,27.01
2022-08-05T12:06:20.367Z,27.02
2022-08-05T12:08:02.952Z,27.01
2022-08-05T12:09:22.457Z,27.03
2022-08-05T12:10:57.087Z,27.04
2022-08-05T12:12:08.191Z,27.04
2022-08-05T12:13:15.762Z,27.05
2022-08-05T12:14:52.172Z,27.06
2022-08-05T12:15:59.823Z,27.07
2022-08-05T12:17:04.172Z,27.07
2022-08-05T12:20:17.533Z,27.07
2022-08-05T12:21:39.010Z,27.06
2022-08-05T12:22:46.231Z,27.05
2022-08-05T12:23:55.231Z,27.06
2022-08-05T12:25:02.438Z,27.07
2022-08-05T12:26:07.738Z,27.07
2022-08-05T12:27:21.472Z,27.07
2022-08-05T12:28:36.973Z,27.08
2022-08-05T12:29:41.947Z,27.08
2022-08-05T12:31:01.885Z,27.08
2022-08-05T12:32:07.488Z,27.07
2022-08-05T12:33:27.166Z,27.07
2022-08-05T12:34:41.253Z,27.08
2022-08-05T12:35:45.715Z,27.07
2022-08-05T12:36:56.253Z,27.07
2022-08-05T12:38:00.603Z,27.07
2022-08-05T12:39:07.883Z,27.07
2022-08-05T12:40:13.191Z,27.08
2022-08-05T12:41:34.250Z,27.08
2022-08-05T12:42:47.260Z,27.08
2022-08-05T12:43:53.197Z,27.07
2022-08-05T12:44:57.943Z,27.08
2022-08-05T12:46:02.287Z,27.08
2022-08-05T12:47:07.144Z,27.07
2022-08-05T12:48:27.098Z,27.05
2022-08-05T12:50:02.818Z,27.05
2022-08-05T12:51:21.927Z,27.07
2022-08-05T12:53:38.746Z,27.09
2022-08-05T12:54:43.193Z,27.09
2022-08-05T12:55:51.973Z,27.09
2022-08-05T12:57:01.206Z,27.09
2022-08-05T12:58:39.265Z,27.09
2022-08-05T13:00:09.207Z,27.08
2022-08-05T13:03:12.626Z,27.1
2022-08-05T13:04:21.278Z,27.1
2022-08-05T13:05:33.939Z,27.1
2022-08-05T13:06:51.620Z,27.09
2022-08-05T13:07:57.988Z,27.1
2022-08-05T13:09:06.507Z,27.1
2022-08-05T13:10:19.510Z,27.1
2022-08-05T13:11:25.801Z,27.1
2022-08-05T13:13:09.881Z,27.09
2022-08-05T13:15:18.115Z,27.1
2022-08-05T13:16:53.622Z,27.11
2022-08-05T13:18:02.063Z,27.11
2022-08-05T13:19:06.418Z,27.12
2022-08-05T13:20:11.547Z,27.11
2022-08-05T13:21:21.533Z,27.12
2022-08-05T13:22:50.578Z,27.12
2022-08-05T13:23:55.492Z,27.12
2022-08-05T13:25:05.355Z,27.12
2022-08-05T13:26:53.612Z,27.13
2022-08-05T13:27:57.950Z,27.13
2022-08-05T13:29:03.331Z,27.13
2022-08-05T13:30:33.324Z,27.13
2022-08-05T13:32:03.599Z,27.13
2022-08-05T13:33:09.560Z,27.14
2022-08-05T13:35:31.652Z,27.14
2022-08-05T13:36:55.106Z,27.14
2022-08-05T13:38:04.815Z,27.16
2022-08-05T13:39:24.875Z,27.15
2022-08-05T13:41:54.122Z,27.14
2022-08-05T13:43:00.281Z,27.16
2022-08-05T13:44:04.681Z,27.15
2022-08-05T13:45:13.649Z,27.15
2022-08-05T13:46:44.156Z,27.16
2022-08-05T13:48:56.783Z,27.16
2022-08-05T13:50:06.899Z,27.17
2022-08-05T13:51:20.688Z,27.16
2022-08-05T13:52:28.990Z,27.17
2022-08-05T13:53:47.399Z,27.18
2022-08-05T13:54:53.203Z,27.17
2022-08-05T13:56:01.754Z,27.17
2022-08-05T13:57:20.548Z,27.19
2022-08-05T13:58:30.635Z,27.18
2022-08-05T13:59:35.852Z,27.18
2022-08-05T14:01:04.264Z,27.17
2022-08-05T14:02:10.868Z,27.17
2022-08-05T14:03:32.219Z,27.18
2022-08-05T14:04:40.810Z,27.18
2022-08-05T14:06:24.386Z,27.18
2022-08-05T14:07:56.682Z,27.19
2022-08-05T14:09:30.206Z,27.19
2022-08-05T14:10:35.328Z,27.18
2022-08-05T14:12:00.485Z,27.18
2022-08-05T14:13:35.442Z,27.19
2022-08-05T14:14:40.145Z,27.18
2022-08-05T14:16:06.727Z,27.18
2022-08-05T14:17:21.590Z,27.19
2022-08-05T14:18:28.221Z,27.19
2022-08-05T14:19:32.602Z,27.19
2022-08-05T14:21:23.807Z,27.2
2022-08-05T14:23:19.122Z,27.21
2022-08-05T14:24:40.129Z,27.21
2022-08-05T14:25:54.084Z,27.21
2022-08-05T14:27:17.341Z,27.22
2022-08-05T14:28:26.124Z,27.21
2022-08-05T14:29:31.802Z,27.21
2022-08-05T14:30:37.046Z,27.2
2022-08-05T14:32:02.325Z,27.2
2022-08-05T14:33:32.423Z,27.19
2022-08-05T14:35:04.159Z,27.19
2022-08-05T14:36:14.981Z,27.19
2022-08-05T14:37:44.774Z,27.19
2022-08-05T14:38:58.123Z,27.21
2022-08-05T14:40:06.306Z,27.23
2022-08-05T14:41:10.835Z,27.23
2022-08-05T14:42:22.094Z,27.23
2022-08-05T14:43:59.807Z,27.23
2022-08-05T14:45:24.159Z,27.22
2022-08-05T14:46:29.903Z,27.22
2022-08-05T14:48:04.310Z,27.22
2022-08-05T14:49:56.676Z,27.22
2022-08-05T14:51:21.848Z,27.22
2022-08-05T14:52:51.470Z,27.23
2022-08-05T14:54:06.808Z,27.24
2022-08-05T14:55:55.011Z,27.25
2022-08-05T14:56:59.739Z,27.25
2022-08-05T14:58:13.942Z,27.24
2022-08-05T14:59:18.468Z,27.25
2022-08-05T15:00:28.296Z,27.25
2022-08-05T15:01:47.533Z,27.23
2022-08-05T15:02:56.317Z,27.25
2022-08-05T15:04:02.436Z,27.25
2022-08-05T15:05:13.491Z,27.24
2022-08-05T15:06:18.141Z,27.26
2022-08-05T15:08:09.134Z,27.25
2022-08-05T15:10:09.497Z,27.25
2022-08-05T15:11:14.101Z,27.27
2022-08-05T15:12:19.358Z,27.29
2022-08-05T15:13:45.007Z,27.29
2022-08-05T15:14:55.252Z,27.29
2022-08-05T15:16:00.519Z,27.3
2022-08-05T15:17:04.960Z,27.3
2022-08-05T15:18:49.120Z,27.31
2022-08-05T15:19:56.017Z,27.31
2022-08-05T15:21:07.814Z,27.31
2022-08-05T15:22:14.086Z,27.29
2022-08-05T15:23:23.797Z,27.3
2022-08-05T15:24:29.360Z,27.31
2022-08-05T15:25:41.563Z,27.32
2022-08-05T15:27:05.109Z,27.32
2022-08-05T15:28:14.599Z,27.32
2022-08-05T15:29:19.610Z,27.32
2022-08-05T15:30:32.472Z,27.33
2022-08-05T15:31:40.626Z,27.32
2022-08-05T15:32:46.728Z,27.34
2022-08-05T15:34:04.222Z,27.34
2022-08-05T15:35:36.526Z,27.34
2022-08-05T15:36:53.288Z,27.35
2022-08-05T15:38:08.986Z,27.34
2022-08-05T15:40:42.043Z,27.34
2022-08-05T15:42:54.948Z,27.35
2022-08-05T15:44:22.224Z,27.34
2022-08-05T15:45:36.330Z,27.35
2022-08-05T15:46:43.166Z,27.34
2022-08-05T15:47:47.533Z,27.34
2022-08-05T15:49:01.081Z,27.34
2022-08-05T15:50:43.529Z,27.33
2022-08-05T15:52:03.498Z,27.34
2022-08-05T15:53:57.757Z,27.34
2022-08-05T15:55:10.712Z,27.35
2022-08-05T15:56:21.163Z,27.35
2022-08-05T15:57:27.806Z,27.35
2022-08-05T15:58:38.166Z,27.34
2022-08-05T15:59:45.801Z,27.35
2022-08-05T16:01:03.661Z,27.35
2022-08-05T16:02:25.385Z,27.36
2022-08-05T16:03:34.869Z,27.34
2022-08-05T16:04:45.352Z,27.34
2022-08-05T16:05:52.809Z,27.34
2022-08-05T16:07:00.399Z,27.34
2022-08-05T16:08:05.053Z,27.36
2022-08-05T16:09:10.494Z,27.36
2022-08-05T16:10:16.965Z,27.34
2022-08-05T16:11:40.410Z,27.36
2022-08-05T16:12:56.087Z,27.36
2022-08-05T16:14:00.641Z,27.35
2022-08-05T16:15:05.932Z,27.35
2022-08-05T16:16:25.370Z,27.35
2022-08-05T16:17:31.901Z,27.35
2022-08-05T16:18:51.607Z,27.36
2022-08-05T16:20:03.846Z,27.35
2022-08-05T16:21:15.833Z,27.37
2022-08-05T16:22:24.226Z,27.36
2022-08-05T16:23:53.489Z,27.35
2022-08-05T16:25:09.379Z,27.35
2022-08-05T16:26:16.009Z,27.35
2022-08-05T16:27:32.388Z,27.36
2022-08-05T16:29:12.913Z,27.35
2022-08-05T16:30:26.001Z,27.35
2022-08-05T16:31:56.521Z,27.35
2022-08-05T16:33:01.890Z,27.35
2022-08-05T16:34:06.519Z,27.36
2022-08-05T16:35:15.936Z,27.35
2022-08-05T16:36:38.545Z,27.36
2022-08-05T16:38:02.069Z,27.35
2022-08-05T16:40:05.413Z,27.36
2022-08-05T16:42:13.440Z,27.37
2022-08-05T16:43:32.826Z,27.37
2022-08-05T16:44:37.648Z,27.37
2022-08-05T16:46:03.366Z,27.36
2022-08-05T16:47:29.158Z,28.76
2022-08-05T16:49:02.027Z,29.48
2022-08-05T16:50:08.486Z,29.48
2022-08-05T16:51:12.966Z,29.31
2022-08-05T16:52:19.038Z,29.19
2022-08-05T16:54:02.296Z,29.18
2022-08-05T16:55:28.080Z,29.09
2022-08-05T16:56:52.077Z,29.04
2022-08-05T16:58:00.560Z,29.05
2022-08-05T16:59:11.953Z,28.96
2022-08-05T17:00:25.869Z,29.03
2022-08-05T17:01:52.674Z,29.01
2022-08-05T17:03:01.802Z,28.84
2022-08-05T17:04:18.616Z,28.82
2022-08-05T17:05:25.988Z,28.72
2022-08-05T17:06:33.444Z,28.74
2022-08-05T17:07:52.960Z,28.75
2022-08-05T17:08:59.537Z,28.65
2022-08-05T17:10:04.322Z,28.61
2022-08-05T17:11:08.799Z,28.59
2022-08-05T17:12:22.404Z,28.53
2022-08-05T17:14:00.319Z,28.56
2022-08-05T17:15:48.087Z,28.44
2022-08-05T17:17:42.198Z,28.4
2022-08-05T17:18:48.125Z,28.34
2022-08-05T17:19:53.790Z,28.29
2022-08-05T17:21:00.042Z,28.26
2022-08-05T17:22:08.048Z,28.19
2022-08-05T17:24:04.081Z,27.97
2022-08-05T17:25:43.274Z,27.77
2022-08-05T17:26:47.605Z,27.81
2022-08-05T17:27:53.043Z,27.76
2022-08-05T17:28:57.830Z,27.7
2022-08-05T17:30:07.196Z,27.61
2022-08-05T17:31:41.632Z,27.61
2022-08-05T17:33:03.568Z,27.53
2022-08-05T17:34:12.922Z,27.53
2022-08-05T17:36:07.237Z,27.54
2022-08-05T17:37:45.282Z,27.42
2022-08-05T17:38:53.981Z,27.41
2022-08-05T17:40:03.158Z,27.41
2022-08-05T17:41:22.897Z,27.37
2022-08-05T17:43:47.389Z,27.39
2022-08-05T17:44:57.858Z,27.35